createdAt,value
2022-10-04T00:01:50.045Z,11.90
2022-10-04T00:04:37.129Z,11.80
2022-10-04T00:07:13.784Z,11.90
2022-10-04T00:10:04.684Z,11.80
2022-10-04T00:12:37.233Z,11.80
2022-10-04T00:15:17.337Z,11.80
2022-10-04T00:17:46.281Z,11.70
2022-10-04T00:20:53.628Z,11.70
2022-10-04T00:23:23.544Z,11.70
2022-10-04T00:26:10.462Z,11.70
2022-10-04T00:28:37.198Z,11.60
2022-10-04T00:31:20.700Z,11.60
2022-10-04T00:34:22.856Z,11.60
2022-10-04T00:36:56.227Z,11.60
2022-10-04T00:39:38.874Z,11.50
2022-10-04T00:42:13.080Z,11.60
2022-10-04T00:44:58.424Z,11.60
2022-10-04T00:48:00.852Z,11.50
2022-10-04T00:50:44.208Z,11.50
2022-10-04T00:53:39.969Z,11.50
2022-10-04T00:56:13.501Z,11.40
2022-10-04T00:59:06.695Z,11.40
2022-10-04T01:01:38.052Z,11.40
2022-10-04T01:04:14.079Z,11.40
2022-10-04T01:06:42.072Z,11.40
2022-10-04T01:09:12.259Z,11.40
2022-10-04T01:11:45.748Z,11.40
2022-10-04T01:14:26.821Z,11.40
2022-10-04T01:16:53.876Z,11.40
2022-10-04T01:19:30.404Z,11.50
2022-10-04T01:22:11.357Z,11.50
2022-10-04T01:24:43.447Z,11.50
2022-10-04T01:27:36.089Z,11.60
2022-10-04T01:30:07.637Z,11.50
2022-10-04T01:32:34.791Z,11.60
2022-10-04T01:35:01.918Z,11.60
2022-10-04T01:37:28.788Z,11.60
2022-10-04T01:39:55.955Z,11.60
2022-10-04T01:42:34.877Z,11.50
2022-10-04T01:45:12.092Z,11.50
2022-10-04T01:47:55.288Z,11.40
2022-10-04T01:50:51.428Z,11.40
2022-10-04T01:53:27.091Z,11.30
2022-10-04T01:56:03.378Z,11.30
2022-10-04T01:58:47.036Z,11.30
2022-10-04T02:01:23.894Z,11.40
2022-10-04T02:04:01.084Z,11.30
2022-10-04T02:06:30.014Z,11.30
2022-10-04T02:08:58.480Z,11.50
2022-10-04T02:11:30.155Z,11.40
2022-10-04T02:13:57.887Z,11.40
2022-10-04T02:16:26.510Z,11.40
2022-10-04T02:18:55.129Z,11.40
2022-10-04T02:21:23.988Z,11.40
2022-10-04T02:23:52.940Z,11.40
2022-10-04T02:26:21.397Z,11.40
2022-10-04T02:28:49.448Z,11.40
2022-10-04T02:31:40.368Z,11.40
2022-10-04T02:34:07.789Z,11.40
2022-10-04T02:36:36.589Z,11.40
2022-10-04T02:39:06.579Z,11.40
2022-10-04T02:41:51.188Z,11.40
2022-10-04T02:44:29.493Z,11.40
2022-10-04T02:47:14.498Z,11.40
2022-10-04T02:49:58.754Z,11.40
2022-10-04T02:52:31.796Z,11.40
2022-10-04T02:55:06.485Z,11.30
2022-10-04T02:57:34.784Z,11.40
2022-10-04T03:00:24.577Z,11.40
2022-10-04T03:03:15.963Z,11.40
2022-10-04T03:05:53.266Z,11.40
2022-10-04T03:08:20.460Z,11.40
2022-10-04T03:10:47.880Z,11.40
2022-10-04T03:13:16.075Z,11.50
2022-10-04T03:15:43.839Z,11.50
2022-10-04T03:18:11.159Z,11.50
2022-10-04T03:20:40.455Z,11.50
2022-10-04T03:23:09.127Z,11.60
2022-10-04T03:26:00.304Z,11.60
2022-10-04T03:28:28.941Z,11.60
2022-10-04T03:30:58.056Z,11.60
2022-10-04T03:33:26.969Z,11.60
2022-10-04T03:35:56.410Z,11.70
2022-10-04T03:38:26.383Z,11.60
2022-10-04T03:40:59.305Z,11.60
2022-10-04T03:43:31.446Z,11.60
2022-10-04T03:46:00.431Z,11.60
2022-10-04T03:48:39.941Z,11.70
2022-10-04T03:51:13.383Z,11.70
2022-10-04T03:53:44.409Z,11.70
2022-10-04T03:56:32.968Z,11.70
2022-10-04T03:59:06.411Z,11.70
2022-10-04T04:01:36.247Z,11.70
2022-10-04T04:04:31.234Z,11.70
2022-10-04T04:07:01.965Z,11.60
2022-10-04T04:09:51.691Z,11.60
2022-10-04T04:12:21.641Z,11.60
2022-10-04T04:14:51.665Z,11.60
2022-10-04T04:17:27.651Z,11.60
2022-10-04T04:20:02.282Z,11.70
2022-10-04T04:22:32.134Z,11.70
2022-10-04T04:25:02.512Z,11.70
2022-10-04T04:27:33.966Z,11.70
2022-10-04T04:30:02.482Z,11.60
2022-10-04T04:32:40.242Z,11.60
2022-10-04T04:35:20.243Z,11.70
2022-10-04T04:38:22.420Z,11.60
2022-10-04T04:40:50.921Z,11.70
2022-10-04T04:43:20.051Z,11.70
2022-10-04T04:46:02.920Z,11.60
2022-10-04T04:48:37.025Z,11.70
2022-10-04T04:51:05.157Z,11.60
2022-10-04T04:53:32.649Z,11.60
2022-10-04T04:56:04.570Z,11.60
2022-10-04T04:58:38.729Z,11.70
2022-10-04T05:01:08.717Z,11.60
2022-10-04T05:03:35.819Z,11.60
2022-10-04T05:06:25.556Z,11.60
2022-10-04T05:08:52.432Z,11.70
2022-10-04T05:11:22.124Z,11.70
2022-10-04T05:14:05.848Z,11.60
2022-10-04T05:16:41.987Z,11.50
2022-10-04T05:19:30.526Z,11.50
2022-10-04T05:22:00.408Z,11.40
2022-10-04T05:24:37.053Z,11.40
2022-10-04T05:27:17.106Z,11.40
2022-10-04T05:30:10.257Z,11.50
2022-10-04T05:32:39.774Z,11.40
2022-10-04T05:35:18.504Z,11.40
2022-10-04T05:37:51.326Z,11.50
2022-10-04T05:40:26.208Z,11.50
2022-10-04T05:42:55.267Z,11.50
2022-10-04T05:45:25.999Z,11.50
2022-10-04T05:47:55.038Z,11.50
2022-10-04T05:50:40.624Z,11.50
2022-10-04T05:53:33.658Z,11.50
2022-10-04T05:56:17.580Z,11.50
2022-10-04T05:59:22.084Z,11.40
2022-10-04T06:02:25.314Z,11.50
2022-10-04T06:05:01.813Z,11.60
2022-10-04T06:07:53.295Z,11.60
2022-10-04T06:10:47.872Z,11.60
2022-10-04T06:13:45.325Z,11.70
2022-10-04T06:16:40.442Z,11.70
2022-10-04T06:19:33.536Z,11.80
2022-10-04T06:22:19.390Z,11.80
2022-10-04T06:24:57.276Z,11.80
2022-10-04T06:27:27.107Z,11.80
2022-10-04T06:30:00.550Z,11.80
2022-10-04T06:32:30.187Z,11.80
2022-10-04T06:35:06.005Z,11.80
2022-10-04T06:38:01.308Z,11.80
2022-10-04T06:40:41.236Z,11.80
2022-10-04T06:43:31.908Z,11.80
2022-10-04T06:46:21.657Z,11.90
2022-10-04T06:49:17.353Z,11.90
2022-10-04T06:52:06.079Z,11.90
2022-10-04T06:55:17.130Z,11.90
2022-10-04T06:58:25.729Z,12.00
2022-10-04T07:01:04.758Z,12.00
2022-10-04T07:03:52.355Z,12.00
2022-10-04T07:06:31.502Z,12.00
2022-10-04T07:09:03.014Z,12.00
2022-10-04T07:11:37.868Z,12.00
2022-10-04T07:14:18.211Z,12.10
2022-10-04T07:16:57.559Z,12.10
2022-10-04T07:19:36.525Z,12.20
2022-10-04T07:22:26.500Z,12.20
2022-10-04T07:25:14.825Z,12.30
2022-10-04T07:28:15.571Z,12.30
2022-10-04T07:30:54.451Z,12.40
2022-10-04T07:33:24.831Z,12.50
2022-10-04T07:35:59.349Z,12.50
2022-10-04T07:38:34.232Z,12.70
2022-10-04T07:41:25.650Z,12.80
2022-10-04T07:43:58.531Z,12.90
2022-10-04T07:46:43.419Z,12.80
2022-10-04T07:49:15.195Z,12.90
2022-10-04T07:52:02.902Z,13.00
2022-10-04T07:54:41.239Z,13.00
2022-10-04T07:57:45.083Z,13.00
2022-10-04T08:00:24.069Z,13.10
2022-10-04T08:03:15.296Z,13.10
2022-10-04T08:05:52.462Z,13.10
2022-10-04T08:08:19.201Z,13.20
2022-10-04T08:10:57.286Z,13.20
2022-10-04T08:13:51.623Z,13.20
2022-10-04T08:17:01.328Z,13.30
2022-10-04T08:19:37.636Z,13.30
2022-10-04T08:22:33.435Z,13.30
2022-10-04T08:25:12.775Z,13.30
2022-10-04T08:28:13.117Z,13.20
2022-10-04T08:31:18.194Z,13.20
2022-10-04T08:33:51.106Z,13.30
2022-10-04T08:36:49.642Z,13.30
2022-10-04T08:39:42.067Z,13.40
2022-10-04T08:42:32.314Z,13.40
2022-10-04T08:45:21.099Z,13.50
2022-10-04T08:48:06.462Z,13.50
2022-10-04T08:51:03.981Z,13.60
2022-10-04T08:53:49.184Z,13.70
2022-10-04T08:56:38.376Z,13.80
2022-10-04T08:59:23.695Z,13.80
2022-10-04T09:02:06.367Z,13.90
2022-10-04T09:04:45.122Z,13.90
2022-10-04T09:07:38.598Z,13.90
2022-10-04T09:10:34.706Z,14.00
2022-10-04T09:13:25.945Z,14.10
2022-10-04T09:15:56.230Z,14.20
2022-10-04T09:18:29.331Z,14.20
2022-10-04T09:21:10.408Z,14.30
2022-10-04T09:24:17.572Z,14.40
2022-10-04T09:26:47.564Z,14.40
2022-10-04T09:29:34.599Z,14.40
2022-10-04T09:32:01.342Z,14.50
2022-10-04T09:35:15.648Z,14.50
2022-10-04T09:38:02.643Z,14.60
2022-10-04T09:40:35.265Z,14.70
2022-10-04T09:43:12.419Z,14.70
2022-10-04T09:46:05.535Z,14.80
2022-10-04T09:49:00.171Z,14.90
2022-10-04T09:51:35.794Z,15.00
2022-10-04T09:54:15.740Z,15.10
2022-10-04T09:56:48.406Z,15.20
2022-10-04T09:59:43.918Z,15.40
2022-10-04T10:02:29.517Z,15.50
2022-10-04T10:05:31.542Z,15.70
2022-10-04T10:08:03.946Z,15.90
2022-10-04T10:11:15.481Z,16.20
2022-10-04T10:14:16.443Z,16.40
2022-10-04T10:17:03.615Z,17.20
2022-10-04T10:19:48.476Z,17.50
2022-10-04T10:22:26.878Z,17.70
2022-10-04T10:25:17.717Z,18.00
2022-10-04T10:27:56.624Z,18.40
2022-10-04T10:30:25.923Z,18.50
2022-10-04T10:33:11.024Z,18.60
2022-10-04T10:36:02.789Z,18.80
2022-10-04T10:38:51.637Z,19.00
2022-10-04T10:41:26.105Z,19.00
2022-10-04T10:44:11.867Z,19.00
2022-10-04T10:47:18.264Z,19.10
2022-10-04T10:49:59.676Z,19.20
2022-10-04T10:52:35.423Z,19.40
2022-10-04T10:55:14.621Z,19.50
2022-10-04T10:58:07.763Z,19.40
2022-10-04T11:01:12.750Z,19.30
2022-10-04T11:04:20.535Z,19.50
2022-10-04T11:07:05.967Z,19.70
2022-10-04T11:09:57.336Z,19.10
2022-10-04T11:12:52.603Z,19.30
2022-10-04T11:16:02.322Z,19.30
2022-10-04T11:19:19.695Z,19.10
2022-10-04T11:22:06.981Z,19.00
2022-10-04T11:24:44.631Z,18.70
2022-10-04T11:27:49.514Z,18.40
2022-10-04T11:30:26.244Z,18.30
2022-10-04T11:33:45.650Z,18.20
2022-10-04T11:36:49.289Z,18.30
2022-10-04T11:39:33.057Z,18.20
2022-10-04T11:42:18.757Z,18.10
2022-10-04T11:45:24.237Z,17.80
2022-10-04T11:48:11.378Z,17.70
2022-10-04T11:51:03.196Z,17.60
2022-10-04T11:53:45.032Z,17.50
2022-10-04T11:56:11.837Z,17.40
2022-10-04T11:59:07.983Z,17.30
2022-10-04T12:01:59.829Z,17.30
2022-10-04T12:04:57.567Z,17.20
2022-10-04T12:07:27.392Z,17.20
2022-10-04T12:10:03.504Z,17.30
2022-10-04T12:12:39.035Z,17.30
2022-10-04T12:15:28.070Z,17.60
2022-10-04T12:18:12.689Z,17.80
2022-10-04T12:20:54.507Z,18.10
2022-10-04T12:24:02.352Z,18.20
2022-10-04T12:27:00.567Z,18.30
2022-10-04T12:29:39.503Z,18.20
2022-10-04T12:32:33.527Z,18.20
2022-10-04T12:35:12.453Z,18.30
2022-10-04T12:38:01.341Z,18.40
2022-10-04T12:40:35.130Z,18.50
2022-10-04T12:43:12.399Z,18.60
2022-10-04T12:46:07.152Z,18.60
2022-10-04T12:48:49.101Z,18.50
2022-10-04T12:51:32.081Z,18.70
2022-10-04T12:54:23.677Z,18.90
2022-10-04T12:57:11.935Z,18.90
2022-10-04T12:59:54.966Z,19.00
2022-10-04T13:02:30.825Z,19.00
2022-10-04T13:05:20.554Z,19.00
2022-10-04T13:08:11.488Z,18.80
2022-10-04T13:11:05.880Z,18.70
2022-10-04T13:13:55.095Z,18.60
2022-10-04T13:19:41.735Z,18.40
2022-10-04T13:22:54.680Z,18.40
2022-10-04T13:25:39.699Z,18.20
2022-10-04T13:28:29.539Z,18.00
2022-10-04T13:31:04.300Z,17.90
2022-10-04T13:33:50.247Z,17.70
2022-10-04T13:37:00.812Z,17.70
2022-10-04T13:39:46.357Z,17.90
2022-10-04T13:42:51.255Z,18.10
2022-10-04T13:45:35.470Z,18.00
2022-10-04T13:48:18.186Z,18.20
2022-10-04T13:51:09.469Z,18.30
2022-10-04T13:54:10.277Z,18.40
2022-10-04T13:56:48.915Z,18.30
2022-10-04T13:59:42.976Z,18.20
2022-10-04T14:02:37.770Z,18.10
2022-10-04T14:05:39.507Z,18.00
2022-10-04T14:08:25.124Z,18.10
2022-10-04T14:11:11.065Z,18.00
2022-10-04T14:14:10.281Z,17.90
2022-10-04T14:17:07.988Z,17.80
2022-10-04T14:20:00.958Z,17.70
2022-10-04T14:22:45.643Z,17.70
2022-10-04T14:25:44.937Z,17.70
2022-10-04T14:28:38.143Z,17.70
2022-10-04T14:31:37.222Z,17.60
2022-10-04T14:34:36.992Z,17.60
2022-10-04T14:37:23.300Z,17.60
2022-10-04T14:40:18.446Z,17.40
2022-10-04T14:43:03.095Z,17.20
2022-10-04T14:45:51.344Z,17.20
2022-10-04T14:48:44.016Z,17.30
2022-10-04T14:51:35.451Z,17.20
2022-10-04T14:54:31.256Z,17.20
2022-10-04T14:57:35.856Z,17.20
2022-10-04T15:00:19.438Z,17.20
2022-10-04T15:03:05.546Z,17.20
2022-10-04T15:05:35.449Z,17.20
2022-10-04T15:08:14.037Z,17.10
2022-10-04T15:10:58.416Z,17.00
2022-10-04T15:13:35.282Z,17.00
2022-10-04T15:16:17.669Z,17.00
2022-10-04T15:19:05.421Z,17.10
2022-10-04T15:21:35.140Z,17.10
2022-10-04T15:24:17.029Z,16.90
2022-10-04T15:26:50.394Z,16.80
2022-10-04T15:29:31.731Z,16.80
2022-10-04T15:32:35.753Z,16.80
2022-10-04T15:35:16.314Z,16.80
2022-10-04T15:37:54.128Z,16.70
2022-10-04T15:40:24.115Z,16.70
2022-10-04T15:43:16.527Z,16.70
2022-10-04T15:46:23.953Z,16.60
2022-10-04T15:49:12.818Z,16.60
2022-10-04T15:51:54.651Z,16.50
2022-10-04T15:54:44.339Z,16.30
2022-10-04T15:57:55.284Z,16.30
2022-10-04T16:00:42.568Z,16.40
2022-10-04T16:03:54.040Z,16.30
2022-10-04T16:06:47.282Z,16.20
2022-10-04T16:09:23.616Z,16.10
2022-10-04T16:12:01.907Z,16.00
2022-10-04T16:14:52.336Z,16.00
2022-10-04T16:17:22.195Z,16.00
2022-10-04T16:20:24.175Z,15.90
2022-10-04T16:23:28.534Z,15.80
2022-10-04T16:26:03.389Z,15.90
2022-10-04T16:28:39.524Z,15.80
2022-10-04T16:31:34.479Z,15.70
2022-10-04T16:34:10.042Z,15.70
2022-10-04T16:36:53.903Z,15.50
2022-10-04T16:40:03.309Z,15.50
2022-10-04T16:42:51.772Z,15.30
2022-10-04T16:45:40.931Z,15.40
2022-10-04T16:48:57.606Z,15.30
2022-10-04T16:52:05.824Z,15.30
2022-10-04T16:54:38.523Z,15.30
2022-10-04T16:57:11.592Z,15.20
2022-10-04T16:59:47.484Z,15.10
2022-10-04T17:02:39.136Z,15.10
2022-10-04T17:05:18.463Z,15.00
2022-10-04T17:08:04.760Z,14.90
2022-10-04T17:10:57.941Z,14.80
2022-10-04T17:13:43.583Z,14.90
2022-10-04T17:16:29.740Z,14.80
2022-10-04T17:19:22.226Z,14.80
2022-10-04T17:22:16.160Z,14.70
2022-10-04T17:24:55.949Z,14.60
2022-10-04T17:27:46.219Z,14.50
2022-10-04T17:30:15.932Z,14.60
2022-10-04T17:33:08.705Z,14.50
2022-10-04T17:35:58.304Z,14.40
2022-10-04T17:38:30.985Z,14.40
2022-10-04T17:41:03.625Z,14.30
2022-10-04T17:44:05.843Z,14.30
2022-10-04T17:47:00.338Z,14.40
2022-10-04T17:50:11.349Z,14.40
2022-10-04T17:53:08.014Z,14.40
2022-10-04T17:55:53.281Z,14.40
2022-10-04T17:58:25.876Z,14.30
2022-10-04T18:01:07.775Z,14.30
2022-10-04T18:03:52.474Z,14.20
2022-10-04T18:06:56.882Z,14.20
2022-10-04T18:09:29.580Z,14.10
2022-10-04T18:12:07.877Z,14.10
2022-10-04T18:14:37.898Z,14.10
2022-10-04T18:17:06.679Z,14.00
2022-10-04T18:19:41.498Z,14.00
2022-10-04T18:22:11.474Z,14.10
2022-10-04T18:24:38.468Z,14.10
2022-10-04T18:27:26.347Z,14.10
2022-10-04T18:30:05.019Z,14.10
2022-10-04T18:32:37.956Z,14.10
2022-10-04T18:35:33.674Z,14.20
2022-10-04T18:38:24.485Z,14.20
2022-10-04T18:41:01.613Z,14.10
2022-10-04T18:43:41.682Z,14.00
2022-10-04T18:46:22.837Z,14.00
2022-10-04T18:48:55.017Z,13.90
2022-10-04T18:51:28.359Z,13.90
2022-10-04T18:54:12.837Z,13.90
2022-10-04T18:56:54.169Z,13.90
2022-10-04T19:00:11.890Z,13.80
2022-10-04T19:03:06.848Z,13.90
2022-10-04T19:06:04.769Z,13.80
2022-10-04T19:08:58.700Z,13.80
2022-10-04T19:12:04.879Z,13.90
2022-10-04T19:14:44.967Z,13.80
2022-10-04T19:17:33.716Z,13.70
2022-10-04T19:20:25.245Z,13.70
2022-10-04T19:23:15.435Z,13.80
2022-10-04T19:26:36.839Z,13.70
2022-10-04T19:29:41.219Z,13.60
2022-10-04T19:32:29.290Z,13.70
2022-10-04T19:35:12.767Z,13.60
2022-10-04T19:38:14.182Z,13.70
2022-10-04T19:40:55.542Z,13.70
2022-10-04T19:43:50.507Z,13.70
2022-10-04T19:46:53.002Z,13.60
2022-10-04T19:49:43.966Z,13.50
2022-10-04T19:52:28.426Z,13.40
2022-10-04T19:55:06.088Z,13.40
2022-10-04T19:57:38.693Z,13.60
2022-10-04T20:00:13.497Z,13.70
2022-10-04T20:02:48.175Z,13.70
2022-10-04T20:05:26.567Z,13.70
2022-10-04T20:08:01.592Z,13.70
2022-10-04T20:10:37.238Z,13.70
2022-10-04T20:13:24.884Z,13.60
2022-10-04T20:15:56.606Z,13.60
2022-10-04T20:18:32.585Z,13.60
2022-10-04T20:21:00.170Z,13.60
2022-10-04T20:23:42.146Z,13.60
2022-10-04T20:26:10.735Z,13.70
2022-10-04T20:28:41.694Z,13.70
2022-10-04T20:31:18.833Z,13.70
2022-10-04T20:33:48.220Z,13.70
2022-10-04T20:36:21.348Z,13.70
2022-10-04T20:38:55.518Z,13.80
2022-10-04T20:41:28.275Z,13.80
2022-10-04T20:44:03.977Z,13.80
2022-10-04T20:46:38.053Z,13.80
2022-10-04T20:49:14.465Z,13.70
2022-10-04T20:51:48.291Z,13.70
2022-10-04T20:54:20.150Z,13.70
2022-10-04T20:56:48.595Z,13.80
2022-10-04T20:59:17.641Z,13.80
2022-10-04T21:02:05.468Z,13.90
2022-10-04T21:04:33.370Z,14.00
2022-10-04T21:07:02.807Z,14.00
2022-10-04T21:09:31.156Z,14.00
2022-10-04T21:11:58.825Z,13.90
2022-10-04T21:14:36.764Z,13.90
2022-10-04T21:17:23.458Z,13.90
2022-10-04T21:19:50.514Z,13.90
2022-10-04T21:22:17.268Z,13.80
2022-10-04T21:24:49.916Z,13.90
2022-10-04T21:27:37.225Z,13.90
2022-10-04T21:30:13.450Z,14.00
2022-10-04T21:32:40.246Z,14.00
2022-10-04T21:35:08.671Z,14.00
2022-10-04T21:37:36.019Z,14.00
2022-10-04T21:40:04.252Z,14.00
2022-10-04T21:42:31.049Z,14.00
2022-10-04T21:44:58.262Z,14.10
2022-10-04T21:47:25.316Z,14.10
2022-10-04T21:49:52.446Z,14.10
2022-10-04T21:52:19.298Z,14.20
2022-10-04T21:54:46.564Z,14.20
2022-10-04T21:57:13.888Z,14.20
2022-10-04T21:59:40.674Z,14.20
2022-10-04T22:02:07.951Z,14.10
2022-10-04T22:04:35.259Z,14.20
2022-10-04T22:07:02.111Z,14.10
2022-10-04T22:09:29.161Z,14.30
2022-10-04T22:11:56.255Z,14.30
2022-10-04T22:14:23.047Z,14.20
2022-10-04T22:16:50.547Z,14.10
2022-10-04T22:19:17.946Z,14.10
2022-10-04T22:21:44.777Z,14.10
2022-10-04T22:24:19.102Z,14.10
2022-10-04T22:26:46.742Z,14.10
2022-10-04T22:29:15.932Z,14.10
2022-10-04T22:31:46.814Z,14.10
2022-10-04T22:34:19.574Z,14.10
2022-10-04T22:36:48.757Z,14.10
2022-10-04T22:39:18.142Z,14.20
2022-10-04T22:41:48.341Z,14.20
2022-10-04T22:44:19.705Z,14.10
2022-10-04T22:46:51.433Z,14.10
2022-10-04T22:49:22.249Z,14.10
2022-10-04T22:51:51.193Z,14.10
2022-10-04T22:54:21.171Z,14.20
2022-10-04T22:56:49.084Z,14.10
2022-10-04T22:59:19.648Z,14.10
2022-10-04T23:01:47.088Z,14.20
2022-10-04T23:04:25.182Z,14.20
2022-10-04T23:06:53.197Z,14.10
2022-10-04T23:09:20.836Z,14.10
2022-10-04T23:11:47.609Z,14.20
2022-10-04T23:14:14.653Z,14.20
2022-10-04T23:16:43.006Z,14.20
2022-10-04T23:19:13.466Z,14.10
2022-10-04T23:21:43.813Z,14.10
2022-10-04T23:24:20.657Z,14.10
2022-10-04T23:26:52.544Z,14.20
2022-10-04T23:29:31.834Z,14.20
2022-10-04T23:31:58.845Z,14.20
2022-10-04T23:34:37.477Z,14.20
2022-10-04T23:37:13.336Z,14.20
2022-10-04T23:39:40.373Z,14.20
2022-10-04T23:42:20.610Z,14.20
2022-10-04T23:44:49.573Z,14.20
2022-10-04T23:47:18.932Z,14.20
2022-10-04T23:49:48.349Z,14.10
2022-10-04T23:52:36.602Z,14.10
2022-10-04T23:55:15.951Z,14.20
2022-10-04T23:57:42.768Z,14.10
